Latest Weather Observations for Hay Airport

IDN60801

Issued at 1:03 am EST Saturday 1 October 2016 (issued every 30 minutes, with the page automatically refreshed every 10 minutes)

About weather observations | Map of weather stations | Latest weather observations for NSW | Other Formats
Station Details ID: 075019 Name: HAY AIRPORT AWS Lat: -34.54 Lon: 144.83 Height: 92.0 m
Data from the previous 72 hours. | See also: Recent months at Hay Airport
Date/Time
EST
Temp
°C
App
Temp
°C
Dew
Point
°C
Rel
Hum
%
Delta-T
°C
Wind Press
QNH
hPa
Press
MSL
hPa
Rain since
9am
mm
Dir  Spd
km/h
Gust
km/h
Spd
kts
Gust
kts
01/01:00am 11.8 7.4 10.4 91 0.7 WNW 24 35 13 19 1003.9 1003.8 4.8
01/12:30am 11.7 7.3 10.3 91 0.7 WNW 24 32 13 17 1003.8 1003.7 4.8
01/12:00am 11.8 7.8 10.4 91 0.7 WNW 22 33 12 18 1003.7 1003.6 4.8
 
Date/Time
EST
Temp
°C
App
Temp
°C
Dew
Point
°C
Rel
Hum
%
Delta-T
°C
Wind Press
QNH
hPa
Press
MSL
hPa
Rain since
9am
mm
Dir  Spd
km/h
Gust
km/h
Spd
kts
Gust
kts
30/11:30pm 11.8 6.5 9.9 88 1.0 W 28 35 15 19 1003.5 1003.4 4.8
30/11:00pm 12.3 6.8 10.4 88 1.0 WNW 30 43 16 23 1003.4 1003.3 4.8
30/10:30pm 12.1 7.7 10.5 90 0.8 WNW 24 32 13 17 1003.2 1003.1 4.8
30/10:00pm 12.0 8.0 10.4 90 0.8 WNW 22 30 12 16 1003.1 1003.0 4.8
30/09:30pm 12.1 7.8 10.7 91 0.7 WNW 24 30 13 16 1002.8 1002.7 4.8
30/09:00pm 12.6 6.7 10.5 87 1.1 W 32 41 17 22 1002.6 1002.5 4.8
30/08:48pm 12.5 7.4 10.7 89 0.9 WNW 28 46 15 25 1002.4 1002.3 4.8
30/08:30pm 12.5 7.9 11.1 91 0.7 WNW 26 37 14 20 1002.3 1002.2 4.8
30/08:00pm 12.3 8.1 11.2 93 0.6 WNW 24 32 13 17 1001.9 1001.8 4.8
30/07:30pm 12.6 7.8 11.5 93 0.6 WNW 28 35 15 19 1001.3 1001.2 4.8
30/07:00pm 12.4 8.3 11.6 95 0.4 WNW 24 33 13 18 1000.8 1000.7 4.8
30/06:30pm 12.7 8.5 12.4 98 0.2 NW 26 35 14 19 1000.2 1000.1 4.8
30/06:00pm 12.7 8.2 12.5 99 0.1 NW 28 37 15 20 999.7 999.7 4.8
30/05:30pm 12.4 8.5 12.2 99 0.1 NW 24 33 13 18 999.6 999.6 4.8
30/05:00pm 11.9 7.5 11.7 99 0.1 NW 26 33 14 18 999.2 999.2 4.8
30/04:30pm 11.5 7.7 11.3 99 0.1 NNW 22 30 12 16 999.1 999.1 4.4
30/04:00pm 11.2 6.2 11.0 99 0.1 NW 28 37 15 20 999.3 999.3 4.0
30/03:30pm 11.2 6.6 11.0 99 0.1 NW 26 39 14 21 999.2 999.2 2.6
30/03:00pm 11.3 6.9 10.5 95 0.4 WNW 24 32 13 17 999.3 999.3 1.6
30/02:30pm 11.6 6.5 10.5 93 0.6 WNW 28 41 15 22 999.4 999.4 0.8
30/02:00pm 13.2 6.8 8.7 74 2.3 WNW 32 41 17 22 998.8 998.8 0.0
30/01:32pm 14.6 8.1 8.1 65 3.3 WNW 32 50 17 27 998.6 998.6 0.0
30/01:30pm 14.4 7.6 7.9 65 3.2 WNW 33 50 18 27 998.6 998.6 0.0
30/01:00pm 15.0 7.5 8.0 63 3.5 WNW 37 48 20 26 998.5 998.5 0.0
30/12:30pm 15.4 8.4 8.6 64 3.5 WNW 35 46 19 25 998.1 998.1 0.0
30/12:00pm 13.8 7.3 8.0 68 2.9 W 32 43 17 23 998.1 998.1 0.0
30/11:30am 13.2 6.9 8.9 75 2.2 W 32 41 17 22 998.0 998.0 0.0
30/11:21am 14.2 7.5 9.6 74 2.4 W 35 54 19 29 997.8 997.8 0.0
30/11:00am 13.7 8.3 9.6 76 2.1 W 28 39 15 21 997.8 997.8 0.0
30/10:30am 11.8 5.4 8.6 81 1.6 W 32 46 17 25 997.4 997.4 0.0
30/10:00am 12.9 6.6 9.7 81 1.7 WNW 33 43 18 23 997.1 997.1 0.0
30/09:30am 11.8 5.4 9.2 84 1.3 W 33 46 18 25 996.7 996.6 0.0
30/09:00am 10.3 4.8 9.1 92 0.6 W 28 39 15 21 996.4 996.3 12.2
30/08:30am 9.6 4.4 8.8 95 0.4 WNW 26 35 14 19 995.9 995.8 12.2
30/08:00am 9.3 4.6 9.2 99 0.0 W 24 33 13 18 995.6 995.5 12.2
30/07:30am 9.0 3.8 8.9 99 0.0 W 26 37 14 20 994.8 994.7 12.2
30/07:00am 8.9 4.8 8.8 99 0.0 WNW 20 28 11 15 994.2 994.1 12.2
30/06:30am 8.8 4.9 8.7 99 0.0 WNW 19 26 10 14 993.5 993.4 11.8
30/06:00am 8.8 4.9 8.7 99 0.0 W 19 24 10 13 992.8 992.7 11.2
30/05:30am 9.0 5.0 8.9 99 0.0 WNW 20 24 11 13 992.1 992.0 10.6
30/05:00am 9.2 2.4 9.1 99 0.0 NW 35 48 19 26 991.7 991.6 9.4
30/04:59am 9.4 2.2 9.3 99 0.0 NW 37 50 20 27 991.7 991.6 9.0
30/04:42am 9.9 2.9 9.8 99 0.1 NW 37 57 20 31 991.0 990.9 7.8
30/04:30am 9.9 2.5 9.8 99 0.1 NW 39 52 21 28 990.9 990.8 7.8
30/04:00am 10.0 2.2 9.9 99 0.1 NW 41 56 22 30 990.7 990.6 7.6
30/03:30am 10.0 2.6 9.9 99 0.1 NNW 39 56 21 30 990.5 990.4 7.0
30/03:05am 9.9 3.8 9.8 99 0.1 NNW 32 50 17 27 990.5 990.4 7.0
30/03:00am 9.8 4.1 9.7 99 0.1 NNW 30 44 16 24 990.7 990.6 7.0
30/02:30am 9.7 5.1 9.6 99 0.1 NNW 24 35 13 19 991.3 991.2 6.0
30/02:00am 9.0 4.6 8.9 99 0.0 NNW 22 30 12 16 991.7 991.6 5.6
30/01:30am 8.6 3.7 8.3 98 0.1 NNW 24 30 13 16 991.9 991.8 5.6
30/01:00am 8.8 4.3 8.4 97 0.2 NW 22 33 12 18 992.0 991.9 5.6
30/12:43am 8.9 4.0 8.3 96 0.3 W 24 33 13 18 991.7 991.6 5.6
30/12:30am 8.9 1.4 8.1 95 0.4 WSW 37 56 20 30 991.1 991.0 5.6
30/12:21am 8.9 0.2 8.3 96 0.3 W 44 69 24 37 990.5 990.4 5.6
30/12:19am 9.1 0.6 8.5 96 0.3 WNW 43 69 23 37 990.5 990.4 5.6
30/12:16am 9.7 3.0 9.6 99 0.1 WNW 35 65 19 35 990.2 990.1 5.6
30/12:12am 9.9 3.8 9.8 99 0.1 WNW 32 46 17 25 990.1 990.0 5.6
30/12:00am 9.8 3.5 9.7 99 0.1 NNW 33 50 18 27 989.6 989.5 5.6
 
Date/Time
EST
Temp
°C
App
Temp
°C
Dew
Point
°C
Rel
Hum
%
Delta-T
°C
Wind Press
QNH
hPa
Press
MSL
hPa
Rain since
9am
mm
Dir  Spd
km/h
Gust
km/h
Spd
kts
Gust
kts
29/11:56pm 9.9 3.6 9.8 99 0.1 NNW 33 50 18 27 989.6 989.5 5.6
29/11:30pm 9.8 4.1 9.7 99 0.1 N 30 41 16 22 990.3 990.2 5.6
29/11:00pm 9.6 5.0 9.5 99 0.1 N 24 32 13 17 991.1 991.0 4.0
29/10:30pm 9.8 3.5 9.7 99 0.1 N 33 46 18 25 992.0 991.9 2.8
29/10:00pm 10.0 3.3 9.5 97 0.3 N 35 48 19 26 992.4 992.3 2.0
29/09:37pm 10.1 3.7 9.5 96 0.3 NNW 33 52 18 28 992.6 992.5 2.0
29/09:30pm 10.1 2.9 9.3 95 0.4 NNW 37 52 20 28 992.7 992.6 2.0
29/09:00pm 9.9 2.7 9.0 94 0.5 N 37 52 20 28 992.7 992.6 2.0
29/08:30pm 10.1 2.4 8.7 91 0.7 N 39 50 21 27 992.7 992.6 2.0
29/08:00pm 10.2 2.8 8.5 89 0.8 NNW 37 56 20 30 992.8 992.7 2.0
29/07:47pm 10.5 2.6 7.7 83 1.4 N 39 63 21 34 992.6 992.5 2.0
29/07:30pm 10.5 2.7 8.1 85 1.2 NNW 39 52 21 28 992.5 992.4 2.0
29/07:00pm 10.5 4.1 8.6 88 0.9 N 32 43 17 23 992.6 992.5 1.8
29/06:30pm 9.9 3.6 8.8 93 0.5 N 32 41 17 22 992.4 992.3 1.8
29/06:00pm 10.0 3.5 8.8 92 0.6 NNW 33 46 18 25 992.3 992.2 1.8
29/05:30pm 10.2 4.2 8.8 91 0.7 NNW 30 39 16 21 992.4 992.3 1.6
29/05:08pm 9.9 3.0 9.0 94 0.4 NNW 35 54 19 29 992.3 992.2 1.6
29/05:00pm 10.0 1.9 8.6 91 0.7 NNW 41 54 22 29 992.1 992.0 1.4
29/04:30pm 12.7 2.3 6.1 64 3.1 NNW 50 69 27 37 991.7 991.6 0.4
29/04:00pm 13.1 3.7 7.1 67 3.0 NNW 46 67 25 36 991.7 991.6 0.4
29/03:31pm 12.1 2.5 6.4 68 2.7 NNW 46 65 25 35 991.9 991.8 0.4
29/03:30pm 12.2 2.2 6.3 67 2.8 NNW 48 65 26 35 991.9 991.8 0.4
29/03:03pm 13.0 2.8 7.0 67 2.9 NNW 50 69 27 37 992.1 992.0 0.4
29/03:00pm 13.2 2.2 7.0 66 3.0 NNW 54 70 29 38 992.1 992.0 0.4
29/02:30pm 11.8 3.0 7.9 77 1.9 NNW 44 69 24 37 992.2 992.1 0.4
29/02:00pm 12.1 3.6 6.8 70 2.6 NNW 41 59 22 32 992.3 992.2 0.2
29/01:37pm 12.6 5.9 7.5 71 2.5 NNW 32 54 17 29 992.5 992.4 0.2
29/01:30pm 13.3 7.8 10.7 84 1.4 NNW 30 44 16 24 992.6 992.5 0.2
29/01:00pm 13.9 5.5 5.5 57 4.0 NNW 39 57 21 31 992.8 992.7 0.2
29/12:52pm 14.4 6.0 5.5 55 4.2 NNW 39 57 21 31 992.9 992.8 0.2
29/12:30pm 14.1 4.8 4.9 54 4.3 NNW 43 54 23 29 993.2 993.1 0.2
29/12:07pm 13.8 6.2 5.7 58 3.8 NNW 35 54 19 29 993.6 993.5 0.2
29/12:00pm 14.2 5.0 5.3 55 4.2 NNW 43 57 23 31 993.5 993.4 0.0
29/11:30am 13.7 4.8 5.1 56 4.0 NNW 41 61 22 33 994.0 993.9 0.0
29/11:05am 14.4 5.3 5.7 56 4.1 NNW 43 61 23 33 994.2 994.1 0.0
29/11:00am 14.1 5.7 5.7 57 4.0 NNW 39 52 21 28 994.2 994.1 0.0
29/10:30am 14.1 6.0 6.9 62 3.5 NNW 39 52 21 28 994.6 994.5 0.0
29/10:00am 12.9 4.7 6.5 65 3.1 NNW 39 50 21 27 994.8 994.7 0.0
29/09:46am 12.9 6.0 7.4 69 2.7 NNW 33 52 18 28 994.9 994.8 0.0
29/09:30am 12.1 5.1 6.8 70 2.5 NNW 33 46 18 25 994.9 994.8 0.0
29/09:18am 11.9 4.6 7.0 72 2.4 NW 35 54 19 29 995.0 994.9 0.0
29/09:00am 12.0 5.2 7.7 75 2.1 NNW 33 50 18 27 994.8 994.7 5.4
29/08:30am 11.2 4.2 6.9 75 2.1 NW 33 44 18 24 994.7 994.6 5.4
29/08:00am 10.6 5.2 8.0 84 1.3 NW 26 37 14 20 994.7 994.6 5.4
29/07:30am 10.0 3.1 7.3 83 1.3 NW 33 44 18 24 994.7 994.6 5.4
29/07:00am 10.4 5.1 9.8 96 0.3 NW 28 41 15 22 994.2 994.1 5.4
29/06:30am 10.4 6.8 9.8 96 0.3 NNW 19 26 10 14 993.7 993.6 5.2
29/06:00am 10.4 7.2 9.8 96 0.3 NNW 17 20 9 11 993.7 993.6 5.2
29/05:30am 10.5 6.3 9.7 95 0.4 NNW 22 28 12 15 993.6 993.5 5.2
29/05:00am 10.4 7.9 9.8 96 0.3 NNW 13 17 7 9 993.0 992.9 5.2
29/04:30am 10.6 7.0 10.0 96 0.3 NNW 19 24 10 13 993.1 993.0 5.2
29/04:00am 11.0 7.6 10.5 97 0.3 NNW 19 22 10 12 993.3 993.2 5.2
29/03:30am 11.2 9.0 10.9 98 0.2 NNW 13 17 7 9 993.0 992.9 5.2
29/03:00am 11.8 8.5 11.6 99 0.1 NNW 20 30 11 16 993.7 993.6 5.2
29/02:30am 12.1 9.4 11.8 98 0.2 NNW 17 22 9 12 993.7 993.6 4.4
29/02:00am 12.7 9.2 12.2 97 0.3 NW 22 37 12 20 994.1 994.0 4.0
29/01:53am 13.1 7.6 12.6 97 0.3 NW 33 52 18 28 994.6 994.5 4.0
29/01:48am 13.6 8.0 13.4 99 0.1 N 35 52 19 28 994.8 994.7 4.0
29/01:30am 13.9 8.0 13.6 98 0.2 N 37 54 20 29 994.2 994.1 3.8
29/01:07am 13.8 7.8 13.2 96 0.3 NNE 37 56 20 30 994.5 994.4 3.6
29/01:00am 13.8 8.1 13.0 95 0.4 NNE 35 50 19 27 994.7 994.6 3.6
29/12:30am 13.4 7.5 12.5 94 0.5 NNE 35 46 19 25 995.5 995.4 3.4
29/12:00am 13.4 6.9 11.8 90 0.9 NNE 37 65 20 35 996.1 996.0 2.0
 
Date/Time
EST
Temp
°C
App
Temp
°C
Dew
Point
°C
Rel
Hum
%
Delta-T
°C
Wind Press
QNH
hPa
Press
MSL
hPa
Rain since
9am
mm
Dir  Spd
km/h
Gust
km/h
Spd
kts
Gust
kts
28/11:30pm 15.7 8.3 10.0 69 3.0 NNE 39 57 21 31 995.8 995.7 0.0
28/11:20pm 16.4 9.2 9.3 63 3.7 NNE 37 56 20 30 995.7 995.6 0.0
28/11:00pm 15.2 8.9 9.8 70 2.8 NE 33 43 18 23 995.9 995.8 0.0
28/10:30pm 15.8 7.9 9.5 66 3.3 NE 41 63 22 34 995.8 995.7 0.0
28/10:00pm 16.1 7.8 9.5 65 3.5 NE 43 63 23 34 996.2 996.1 0.0
28/09:46pm 15.8 9.5 9.7 67 3.2 NE 33 52 18 28 996.5 996.4 0.0
28/09:30pm 16.0 9.2 9.4 65 3.4 NE 35 52 19 28 996.7 996.6 0.0
28/09:00pm 15.8 8.7 9.5 66 3.3 NE 37 56 20 30 997.5 997.5 0.0
28/08:45pm 15.8 9.0 9.2 65 3.4 NE 35 57 19 31 998.0 998.0 0.0
28/08:30pm 15.7 9.2 9.1 65 3.4 NE 33 48 18 26 998.5 998.5 0.0
28/08:00pm 15.8 9.6 9.2 65 3.4 NE 32 48 17 26 999.2 999.2 0.0
28/07:30pm 15.8 10.3 9.2 65 3.4 NE 28 39 15 21 1000.4 1000.3 0.0
28/07:00pm 15.8 11.2 9.5 66 3.3 NE 24 37 13 20 1001.0 1000.9 0.0
28/06:30pm 16.4 11.6 8.9 61 3.9 NE 24 32 13 17 1001.3 1001.2 0.0
28/06:00pm 17.0 11.3 8.4 57 4.4 NE 28 43 15 23 1001.1 1001.0 0.0
28/05:30pm 17.2 12.4 8.9 58 4.3 NE 24 33 13 18 1001.9 1001.8 0.0
28/05:00pm 18.0 13.1 8.6 54 4.9 NE 24 35 13 19 1002.3 1002.2 0.0
28/04:33pm 18.3 12.6 8.3 52 5.2 NE 28 46 15 25 1002.7 1002.6 0.0
28/04:30pm 18.6 12.5 8.3 51 5.3 NE 30 46 16 25 1002.7 1002.6 0.0
28/04:00pm 19.4 13.4 8.7 50 5.6 NE 30 41 16 22 1003.5 1003.4 0.0
28/03:30pm 18.8 12.0 7.6 48 5.7 NE 33 43 18 23 1004.1 1004.0 0.0
28/03:00pm 19.2 12.8 8.5 50 5.6 NE 32 43 17 23 1004.9 1004.8 0.0
28/02:30pm 19.7 14.2 9.3 51 5.5 NE 28 39 15 21 1005.8 1005.7 0.0
28/02:00pm 19.2 13.5 8.5 50 5.6 NE 28 37 15 20 1006.5 1006.5 0.0
28/01:30pm 19.6 14.2 9.5 52 5.4 NE 28 41 15 22 1007.5 1007.5 0.0
28/01:00pm 18.8 13.0 7.9 49 5.6 NE 28 37 15 20 1008.4 1008.4 0.0
28/12:30pm 18.5 12.7 7.9 50 5.4 NE 28 41 15 22 1009.1 1009.1 0.0
28/12:00pm 17.9 12.0 7.6 51 5.2 NE 28 37 15 20 1010.1 1010.1 0.0
28/11:30am 18.1 13.0 7.5 50 5.4 NNE 24 37 13 20 1011.3 1011.2 0.0
28/11:00am 18.0 13.6 8.8 55 4.8 NNE 22 28 12 15 1012.0 1011.9 0.0
28/10:30am 17.3 12.3 8.2 55 4.7 NNE 24 32 13 17 1012.8 1012.7 0.0
28/10:00am 16.9 12.7 8.1 56 4.5 NNE 20 28 11 15 1013.0 1012.9 0.0
28/09:30am 15.8 11.6 8.1 60 3.9 NNE 20 26 11 14 1013.5 1013.4 0.0
28/09:00am 14.9 10.2 7.9 63 3.5 NNE 22 28 12 15 1013.9 1013.8 0.0
28/08:30am 13.4 9.1 8.0 70 2.7 NE 20 26 11 14 1013.8 1013.7 0.0
28/08:00am 12.2 8.8 7.7 74 2.2 NE 15 17 8 9 1013.9 1013.8 0.0
28/07:30am 10.5 7.5 7.7 83 1.4 NE 13 15 7 8 1013.8 1013.7 0.0
28/07:00am 8.6 5.9 7.5 93 0.5 NNE 11 13 6 7 1014.0 1013.9 0.0
28/06:30am 6.0 2.8 5.1 94 0.4 NE 11 11 6 6 1013.8 1013.7 0.0
28/06:00am 6.4 2.9 5.4 93 0.4 NE 13 15 7 8 1013.8 1013.7 0.0
28/05:30am 5.7 2.4 4.8 94 0.4 NNE 11 15 6 8 1013.8 1013.7 0.0
28/05:00am 5.5 2.6 4.6 94 0.4 NE 9 11 5 6 1013.6 1013.5 0.0
28/04:30am 5.5 2.6 4.8 95 0.3 NNE 9 11 5 6 1013.7 1013.6 0.0
28/04:00am 6.4 3.7 5.8 96 0.3 N 9 11 5 6 1013.8 1013.7 0.0
28/03:30am 5.7 2.5 5.1 96 0.3 N 11 13 6 7 1013.8 1013.7 0.0
28/03:00am 5.8 3.2 4.4 91 0.6 NNE 7 7 4 4 1013.9 1013.8 0.0
28/02:30am 5.1 2.2 4.4 95 0.3 N 9 9 5 5 1014.0 1013.9 0.0
28/02:00am 6.1 4.0 5.7 97 0.2 NNE 6 9 3 5 1013.9 1013.8 0.0
28/01:30am 5.5 3.1 5.4 99 0.0 NE 7 7 4 4 1014.1 1014.0 0.0

Other Formats:

Comma delimited format used in spreadsheet applications
http://www.bom.gov.au/fwo/IDN60801/IDN60801.94702.axf

JavaScript Object Notation format (JSON) in row-major order
http://www.bom.gov.au/fwo/IDN60801/IDN60801.94702.json